Terminal Aerodrome Forecast
Issued by NWS Grand Forks, ND

Home | Current Version | Previous Version | Text Only | Print | Product List | Glossary Off
Versions: 1 2 3 4 5 6 7 8 9 10 11 12 13 14

000
FTUS43 KFGF 030500
TAFFAR
TAF
KFAR 030520Z 0306/0406 16012KT P6SM SCT150
     FM030800 30009KT P6SM SCT120
     FM031500 31015G24KT P6SM SCT120
     FM040000 29009KT P6SM SKC=

USA.gov is the U.S. government's official web portal to all federal, state and local government web resources and services.